Time;durP1;ratioP1;P1;durP2;ratioP2;P2;SDS_P1;SDS_P2;PMS_P1;PMS_P2;Temp;Humidity;BMP_temperature;BMP_pressure;BME280_temperature;BME280_humidity;BME280_pressure;Samples;Min_cycle;Max_cycle;Signal;HPM_P1;HPM_P2
2022/12/01 00:00:04;;;;;;;20.60;12.48;;;179.30;2252.80;;;;;;4975763;28;20027;-56
2022/12/01 00:02:29;;;;;;;21.58;12.40;;;179.30;2252.80;;;;;;4976271;28;20031;-55
2022/12/01 00:04:55;;;;;;;19.42;12.23;;;179.30;2252.80;;;;;;4976698;28;20046;-55
2022/12/01 00:07:21;;;;;;;19.92;12.13;;;179.40;2252.80;;;;;;4976210;28;20381;-55
2022/12/01 00:12:31;;;;;;;19.27;12.00;;;179.30;2252.80;;;;;;4975507;28;20034;-54
2022/12/01 00:14:59;;;;;;;20.75;12.65;;;179.30;2252.80;;;;;;4975090;28;20034;-50
2022/12/01 00:17:29;;;;;;;22.02;13.10;;;179.40;2252.80;;;;;;4986194;28;20105;-54
2022/12/01 00:19:56;;;;;;;21.40;13.20;;;179.40;2252.80;;;;;;4987702;28;20066;-51
2022/12/01 00:22:22;;;;;;;22.75;13.75;;;179.50;2252.80;;;;;;4975729;28;20034;-51
2022/12/01 00:24:48;;;;;;;24.17;13.75;;;179.50;2252.80;;;;;;4975549;28;20026;-55
2022/12/01 00:27:14;;;;;;;22.08;12.57;;;179.50;2252.80;;;;;;4975816;28;20042;-52
2022/12/01 00:29:39;;;;;;;20.20;12.45;;;179.50;2252.80;;;;;;4974921;28;20473;-52
2022/12/01 00:32:06;;;;;;;22.60;13.50;;;179.40;2252.80;;;;;;4975700;28;20023;-54
2022/12/01 00:34:31;;;;;;;22.27;13.10;;;179.40;2252.80;;;;;;4974317;28;20536;-50
2022/12/01 00:36:57;;;;;;;20.88;12.98;;;179.40;2252.80;;;;;;4972674;28;20047;-54
2022/12/01 00:39:23;;;;;;;23.17;13.32;;;179.40;2252.80;;;;;;4974035;28;20031;-55
2022/12/01 00:41:49;;;;;;;20.83;12.63;;;179.30;2252.80;;;;;;4975855;28;20037;-54
2022/12/01 00:44:14;;;;;;;21.67;13.13;;;179.40;2252.80;;;;;;4975331;28;20027;-54
2022/12/01 00:46:40;;;;;;;20.13;12.35;;;179.40;2252.80;;;;;;4973027;28;20038;-55
2022/12/01 00:49:08;;;;;;;17.70;11.13;;;179.30;2252.80;;;;;;4975715;28;20465;-55
2022/12/01 00:51:34;;;;;;;18.30;10.82;;;179.40;2252.80;;;;;;4976444;28;20035;-56
2022/12/01 00:54:00;;;;;;;17.65;9.82;;;179.40;2252.80;;;;;;4975728;28;20437;-60
2022/12/01 00:56:25;;;;;;;15.90;9.80;;;179.30;2252.80;;;;;;4975247;28;20121;-56
2022/12/01 00:58:51;;;;;;;17.77;10.60;;;179.40;2252.80;;;;;;4975551;28;20026;-56
2022/12/01 01:01:17;;;;;;;17.23;10.23;;;179.50;2252.80;;;;;;4975016;28;20038;-55
2022/12/01 01:03:42;;;;;;;18.00;11.55;;;179.50;2252.80;;;;;;4976232;28;20030;-54
2022/12/01 01:06:11;;;;;;;18.58;10.80;;;179.50;2252.80;;;;;;4994349;28;20121;-56
2022/12/01 01:08:38;;;;;;;15.43;9.88;;;179.50;2252.80;;;;;;4994491;28;20029;-55
2022/12/01 01:11:05;;;;;;;14.13;8.68;;;179.40;2252.80;;;;;;4978061;28;20034;-51
2022/12/01 01:13:31;;;;;;;14.05;8.18;;;179.50;2252.80;;;;;;4974506;28;20027;-54
2022/12/01 01:15:59;;;;;;;13.65;8.38;;;179.40;2252.80;;;;;;4974918;28;20039;-53
2022/12/01 01:18:25;;;;;;;11.88;7.63;;;179.30;2252.80;;;;;;4958104;28;20159;-53
2022/12/01 01:21:03;;;;;;;12.55;7.63;;;179.30;2252.80;;;;;;4973953;28;20026;-51
2022/12/01 01:23:29;;;;;;;12.60;7.60;;;179.30;2252.80;;;;;;4974476;28;20023;-56
2022/12/01 01:26:03;;;;;;;13.80;8.45;;;179.30;2252.80;;;;;;4974419;28;20380;-55
2022/12/01 01:28:30;;;;;;;14.10;8.50;;;179.30;2252.80;;;;;;4974815;28;20436;-53
2022/12/01 01:30:56;;;;;;;14.73;8.18;;;179.40;2252.80;;;;;;4974255;28;20285;-53
2022/12/01 01:33:22;;;;;;;14.57;7.75;;;179.40;2252.80;;;;;;4974661;28;20114;-56
2022/12/01 01:35:47;;;;;;;13.52;8.10;;;179.30;2252.80;;;;;;4974754;28;20042;-54
2022/12/01 01:38:13;;;;;;;13.38;7.85;;;179.30;2252.80;;;;;;4971730;28;20026;-56
2022/12/01 01:40:44;;;;;;;13.32;8.13;;;179.40;2252.80;;;;;;4993782;28;20037;-55
2022/12/01 01:43:36;;;;;;;12.85;8.20;;;179.40;2252.80;;;;;;4979224;28;20053;-55
2022/12/01 01:46:03;;;;;;;11.70;7.80;;;179.30;2252.80;;;;;;4973078;28;20030;-54
2022/12/01 01:48:30;;;;;;;12.25;7.50;;;179.30;2252.80;;;;;;4974388;28;20086;-55
2022/12/01 01:50:56;;;;;;;15.38;8.15;;;179.30;2252.80;;;;;;4974023;28;20504;-55
2022/12/01 01:53:22;;;;;;;11.77;7.43;;;179.20;2252.80;;;;;;4973352;28;20031;-55
2022/12/01 01:55:48;;;;;;;14.07;7.55;;;179.30;2252.80;;;;;;4973653;28;20051;-55
2022/12/01 01:58:14;;;;;;;12.85;7.57;;;179.30;2252.80;;;;;;4974317;28;20051;-54
2022/12/01 02:00:43;;;;;;;12.32;7.68;;;179.40;2252.80;;;;;;4974010;28;20354;-56
2022/12/01 02:03:11;;;;;;;13.48;8.27;;;179.30;2252.80;;;;;;4970738;28;20082;-56
2022/12/01 02:05:39;;;;;;;13.20;8.02;;;179.30;2252.80;;;;;;4974560;28;20121;-56
2022/12/01 02:08:11;;;;;;;13.93;8.48;;;179.30;2252.80;;;;;;4974280;28;20027;-55
2022/12/01 02:10:46;;;;;;;14.30;8.50;;;179.30;2252.80;;;;;;4973666;28;20033;-54
2022/12/01 02:13:24;;;;;;;;;;;179.30;2252.80;;;;;;4973507;28;20588;-55
2022/12/01 02:16:08;;;;;;;12.80;7.45;;;179.20;2252.80;;;;;;4973669;28;19968;-55
2022/12/01 02:18:57;;;;;;;12.65;8.00;;;179.20;2252.80;;;;;;4970345;28;20026;-54
2022/12/01 02:21:35;;;;;;;13.32;7.72;;;154.50;2252.80;;;;;;4973164;28;20066;-55
2022/12/01 02:24:22;;;;;;;14.07;8.52;;;154.50;2252.80;;;;;;4977068;28;20042;-56
2022/12/01 02:27:12;;;;;;;14.05;8.30;;;154.50;2252.80;;;;;;4983124;28;20026;-54
2022/12/01 02:29:59;;;;;;;13.23;8.45;;;154.50;2252.80;;;;;;4992555;28;20475;-55
2022/12/01 02:32:45;;;;;;;14.65;8.63;;;154.40;2252.80;;;;;;4955100;29;20035;-56
2022/12/01 02:35:27;;;;;;;14.65;8.43;;;154.50;2252.80;;;;;;4954934;28;20023;-56
2022/12/01 02:38:19;;;;;;;14.38;8.60;;;154.50;2252.80;;;;;;4961649;28;20086;-55
2022/12/01 02:41:26;;;;;;;13.70;9.05;;;154.50;2252.80;;;;;;4973964;28;20031;-56
2022/12/01 02:43:56;;;;;;;13.02;8.05;;;154.50;2252.80;;;;;;4894399;29;20491;-56
2022/12/01 02:46:35;;;;;;;15.07;8.70;;;154.50;2252.80;;;;;;4893951;29;20391;-55
2022/12/01 02:49:06;;;;;;;14.20;8.18;;;179.20;2252.80;;;;;;4896406;29;20037;-56
2022/12/01 02:51:34;;;;;;;13.52;8.30;;;179.20;2252.80;;;;;;4895886;29;20052;-55
2022/12/01 02:54:02;;;;;;;12.50;7.72;;;179.20;2252.80;;;;;;4902416;29;20046;-55
2022/12/01 02:56:29;;;;;;;12.82;6.97;;;154.50;2252.80;;;;;;4903178;29;20056;-54
2022/12/01 02:58:55;;;;;;;9.40;6.00;;;154.50;2252.80;;;;;;4898329;29;20033;-55
2022/12/01 03:01:31;;;;;;;9.43;5.82;;;179.20;2252.80;;;;;;4899444;29;20103;-55
2022/12/01 03:03:59;;;;;;;8.88;5.53;;;179.20;2252.80;;;;;;4898714;29;20155;-55
2022/12/01 03:06:51;;;;;;;9.20;5.50;;;179.20;2252.80;;;;;;4898895;29;20525;-56
2022/12/01 03:09:17;;;;;;;7.65;4.72;;;179.30;2252.80;;;;;;4898876;29;20471;-55
2022/12/01 03:12:02;;;;;;;6.80;4.57;;;154.50;2252.80;;;;;;4898659;29;20032;-55
2022/12/01 03:14:46;;;;;;;7.32;4.25;;;154.50;2252.80;;;;;;4881103;29;20055;-54
2022/12/01 03:17:24;;;;;;;8.57;4.75;;;154.50;2252.80;;;;;;4898758;29;20044;-55
2022/12/01 03:19:59;;;;;;;7.60;4.50;;;154.50;2252.80;;;;;;4921274;29;20023;-55
2022/12/01 03:22:32;;;;;;;7.93;4.57;;;154.50;2252.80;;;;;;4958083;29;20027;-55
2022/12/01 03:25:02;;;;;;;8.18;4.47;;;154.50;2252.80;;;;;;4967262;28;20118;-55
2022/12/01 03:27:36;;;;;;;6.45;4.07;;;179.20;2252.80;;;;;;4976780;28;20034;-56
2022/12/01 03:30:09;;;;;;;8.90;4.20;;;154.50;2252.80;;;;;;4976580;28;20023;-55
2022/12/01 03:32:46;;;;;;;6.95;4.20;;;179.20;2252.80;;;;;;4976523;28;20358;-56
2022/12/01 03:35:15;;;;;;;7.20;4.25;;;179.20;2252.80;;;;;;4977112;28;20505;-56
2022/12/01 03:37:52;;;;;;;6.68;3.83;;;179.30;2252.80;;;;;;4976456;28;20039;-55
2022/12/01 03:40:29;;;;;;;6.97;4.38;;;179.30;2252.80;;;;;;4976847;28;20030;-56
2022/12/01 03:43:09;;;;;;;6.07;3.72;;;179.30;2252.80;;;;;;4972624;28;20048;-56
2022/12/01 03:46:01;;;;;;;6.05;3.80;;;179.20;2252.80;;;;;;4976277;28;20031;-55
2022/12/01 03:48:28;;;;;;;8.18;4.30;;;179.30;2252.80;;;;;;4983933;28;20034;-55
2022/12/01 03:51:12;;;;;;;5.97;3.90;;;154.50;2252.80;;;;;;4992120;28;20030;-55
2022/12/01 03:54:03;;;;;;;7.35;4.43;;;154.50;2252.80;;;;;;4993579;28;20473;-55
2022/12/01 03:56:36;;;;;;;7.10;4.45;;;154.50;2252.80;;;;;;4956997;29;20133;-55
2022/12/01 03:59:03;;;;;;;6.97;4.13;;;179.20;2252.80;;;;;;4956577;29;20466;-55
2022/12/01 04:01:31;;;;;;;8.52;5.40;;;179.20;2252.80;;;;;;4968767;28;20474;-55
2022/12/01 04:04:06;;;;;;;9.35;5.53;;;179.30;2252.80;;;;;;4976694;28;20038;-56
2022/12/01 04:06:33;;;;;;;9.15;5.53;;;179.30;2252.80;;;;;;4976029;28;20035;-55
2022/12/01 04:08:59;;;;;;;10.23;6.28;;;179.30;2252.80;;;;;;4975807;28;20026;-56
2022/12/01 04:14:12;;;;;;;11.18;6.22;;;179.50;2252.80;;;;;;4976293;28;20037;-55
2022/12/01 04:16:38;;;;;;;12.55;7.80;;;179.50;2252.80;;;;;;4977857;28;20038;-55
2022/12/01 04:19:03;;;;;;;11.75;6.65;;;179.60;2252.80;;;;;;4995153;28;20056;-56
2022/12/01 04:21:29;;;;;;;12.82;6.22;;;179.60;2252.80;;;;;;4995302;28;20101;-55
2022/12/01 04:24:01;;;;;;;9.32;5.88;;;179.70;2252.80;;;;;;4995609;28;20413;-56
2022/12/01 04:26:33;;;;;;;9.95;6.32;;;179.60;2252.80;;;;;;4990114;28;20038;-55
2022/12/01 04:29:00;;;;;;;8.85;5.50;;;179.60;2252.80;;;;;;4977333;28;20023;-54
2022/12/01 04:31:25;;;;;;;10.52;6.15;;;179.60;2252.80;;;;;;4994692;28;20086;-55
2022/12/01 04:33:53;;;;;;;9.57;5.55;;;179.60;2252.80;;;;;;4994929;28;20034;-56
2022/12/01 04:36:19;;;;;;;9.18;5.90;;;179.60;2252.80;;;;;;4977043;28;20492;-56
2022/12/01 04:38:45;;;;;;;9.73;6.30;;;179.60;2252.80;;;;;;4976108;28;20078;-55
2022/12/01 04:41:12;;;;;;;9.75;6.47;;;179.70;2252.80;;;;;;4976415;28;20031;-56
2022/12/01 04:43:38;;;;;;;11.70;7.40;;;179.70;2252.80;;;;;;4970522;28;20026;-56
2022/12/01 04:46:05;;;;;;;11.02;7.05;;;179.70;2252.80;;;;;;4967265;28;20023;-55
2022/12/01 04:48:31;;;;;;;13.43;7.72;;;179.70;2252.80;;;;;;4976495;28;20023;-57
2022/12/01 04:50:57;;;;;;;18.45;11.35;;;179.70;2252.80;;;;;;4976356;28;20362;-56
2022/12/01 04:53:23;;;;;;;19.67;12.75;;;179.70;2252.80;;;;;;4976083;28;20042;-55
2022/12/01 04:55:48;;;;;;;23.52;14.02;;;179.80;2252.80;;;;;;4974499;28;20465;-56
2022/12/01 04:58:14;;;;;;;23.30;13.80;;;179.60;2252.80;;;;;;4974739;28;20089;-54
2022/12/01 05:00:40;;;;;;;22.38;13.48;;;179.70;2252.80;;;;;;4978953;28;20026;-55
2022/12/01 05:03:05;;;;;;;22.98;14.07;;;179.70;2252.80;;;;;;4992393;28;20128;-56
2022/12/01 05:05:31;;;;;;;23.50;15.35;;;179.60;2252.80;;;;;;4975170;28;20045;-55
2022/12/01 05:08:00;;;;;;;26.42;15.40;;;179.70;2252.80;;;;;;4975100;28;20015;-53
2022/12/01 05:10:25;;;;;;;23.02;13.70;;;179.60;2252.80;;;;;;4974871;28;20030;-55
2022/12/01 05:12:51;;;;;;;23.88;14.02;;;179.70;2252.80;;;;;;4975278;28;20029;-54
2022/12/01 05:15:17;;;;;;;20.77;13.55;;;179.70;2252.80;;;;;;4974944;28;20037;-55
2022/12/01 05:17:43;;;;;;;21.20;13.27;;;179.70;2252.80;;;;;;4974180;28;20034;-55
2022/12/01 05:23:02;;;;;;;18.42;11.10;;;179.70;2252.80;;;;;;4974906;28;20038;-54
2022/12/01 05:25:27;;;;;;;18.88;11.23;;;179.70;2252.80;;;;;;4974516;28;20023;-52
2022/12/01 05:27:53;;;;;;;19.23;11.23;;;179.70;2252.80;;;;;;4974298;28;20382;-54
2022/12/01 05:30:19;;;;;;;16.65;9.75;;;179.70;2252.80;;;;;;4979895;28;20089;-55
2022/12/01 05:32:45;;;;;;;16.73;10.13;;;179.70;2252.80;;;;;;4994341;28;20111;-55
2022/12/01 05:35:11;;;;;;;17.58;9.75;;;179.70;2252.80;;;;;;4979435;28;20115;-55
2022/12/01 05:37:37;;;;;;;15.75;9.23;;;179.70;2252.80;;;;;;4989312;28;20117;-55
2022/12/01 05:40:03;;;;;;;16.95;10.23;;;179.70;2252.80;;;;;;4970898;28;20444;-55
2022/12/01 05:42:29;;;;;;;23.52;12.98;;;179.70;2252.80;;;;;;4973665;28;20433;-52
2022/12/01 05:44:54;;;;;;;25.30;15.10;;;179.70;2252.80;;;;;;4971755;28;20023;-53
2022/12/01 05:47:20;;;;;;;22.77;13.32;;;179.70;2252.80;;;;;;4976745;28;20405;-53
2022/12/01 05:49:46;;;;;;;21.35;13.70;;;179.80;2252.80;;;;;;4979329;28;20043;-52
2022/12/01 05:52:11;;;;;;;18.90;12.05;;;179.80;2252.80;;;;;;4974450;28;20052;-55
2022/12/01 05:54:37;;;;;;;21.08;12.63;;;179.80;2252.80;;;;;;4991432;28;20077;-56
2022/12/01 05:57:03;;;;;;;19.08;11.82;;;179.70;2252.80;;;;;;4987297;28;20048;-56
2022/12/01 05:59:28;;;;;;;18.45;11.70;;;179.80;2252.80;;;;;;4993491;28;20064;-54
2022/12/01 06:01:54;;;;;;;18.63;10.32;;;179.70;2252.80;;;;;;4991604;28;20054;-55
2022/12/01 06:04:20;;;;;;;19.63;10.93;;;179.70;2252.80;;;;;;4982358;28;20033;-56
2022/12/01 06:06:46;;;;;;;16.33;9.80;;;179.60;2252.80;;;;;;4972972;28;20085;-54
2022/12/01 06:09:11;;;;;;;17.67;10.00;;;179.60;2252.80;;;;;;4971783;28;20262;-55
2022/12/01 06:11:37;;;;;;;15.77;9.60;;;179.60;2252.80;;;;;;4972304;28;20125;-54
2022/12/01 06:14:03;;;;;;;15.32;9.32;;;179.70;2252.80;;;;;;4955711;28;20027;-55
2022/12/01 06:16:28;;;;;;;15.88;9.18;;;179.60;2252.80;;;;;;4971258;28;20555;-56
2022/12/01 06:18:54;;;;;;;15.40;9.38;;;179.60;2252.80;;;;;;4972928;28;20029;-56
2022/12/01 06:21:20;;;;;;;15.63;9.45;;;179.60;2252.80;;;;;;4971773;28;20401;-54
2022/12/01 06:23:45;;;;;;;14.80;9.18;;;179.60;2252.80;;;;;;4970384;28;20030;-55
2022/12/01 06:26:11;;;;;;;14.70;8.63;;;179.60;2252.80;;;;;;4955599;28;20117;-55
2022/12/01 06:28:37;;;;;;;14.93;8.50;;;179.50;2252.80;;;;;;4971641;28;20070;-55
2022/12/01 06:31:02;;;;;;;14.95;8.52;;;179.50;2252.80;;;;;;4966955;28;20071;-55
2022/12/01 06:33:28;;;;;;;13.52;8.55;;;179.50;2252.80;;;;;;4973908;28;20026;-56
2022/12/01 06:36:02;;;;;;;13.68;8.20;;;179.60;2252.80;;;;;;4965856;28;20043;-54
2022/12/01 06:38:33;;;;;;;12.32;7.60;;;179.60;2252.80;;;;;;4969476;28;20034;-54
2022/12/01 06:40:59;;;;;;;15.00;8.07;;;179.60;2252.80;;;;;;4977451;28;20034;-56
2022/12/01 06:43:26;;;;;;;14.18;8.35;;;179.60;2252.80;;;;;;4974502;28;20034;-55
2022/12/01 06:45:51;;;;;;;15.80;9.00;;;179.50;2252.80;;;;;;4973843;28;20105;-56
2022/12/01 06:48:23;;;;;;;12.43;8.20;;;179.40;2252.80;;;;;;4975298;28;20102;-54
2022/12/01 06:50:55;;;;;;;13.85;8.90;;;179.40;2252.80;;;;;;4971976;28;20398;-55
2022/12/01 06:53:21;;;;;;;15.73;8.75;;;179.40;2252.80;;;;;;4983519;28;20481;-56
2022/12/01 06:55:47;;;;;;;12.38;8.18;;;179.40;2252.80;;;;;;4975470;28;20047;-55
2022/12/01 06:58:13;;;;;;;13.93;8.35;;;179.50;2252.80;;;;;;4975125;28;20027;-55
2022/12/01 07:00:38;;;;;;;12.85;7.90;;;179.60;2252.80;;;;;;4974963;28;20381;-55
2022/12/01 07:03:04;;;;;;;12.77;7.97;;;179.60;2252.80;;;;;;4975056;28;20066;-55
2022/12/01 07:05:30;;;;;;;12.20;7.78;;;179.70;2252.80;;;;;;4975730;28;20034;-56
2022/12/01 07:07:55;;;;;;;9.68;6.40;;;179.80;2252.80;;;;;;4974837;28;20035;-54
2022/12/01 07:10:21;;;;;;;10.00;6.00;;;179.90;2252.80;;;;;;4974191;28;20066;-54
2022/12/01 07:12:47;;;;;;;9.65;6.18;;;180.00;2252.80;;;;;;4973524;28;20034;-56
2022/12/01 07:15:13;;;;;;;9.32;5.78;;;180.10;2252.80;;;;;;4973901;28;20023;-55
2022/12/01 07:17:38;;;;;;;9.05;5.55;;;204.80;2252.80;;;;;;4969755;28;20062;-56
2022/12/01 07:20:05;;;;;;;8.85;5.50;;;205.00;2252.80;;;;;;4974716;28;20031;-53
2022/12/01 07:22:31;;;;;;;9.07;5.45;;;204.80;2252.80;;;;;;4973833;28;20087;-57
2022/12/01 07:24:56;;;;;;;7.63;5.38;;;204.90;2252.80;;;;;;4974417;28;20493;-56
2022/12/01 07:27:22;;;;;;;8.80;5.55;;;205.00;2252.80;;;;;;4974316;28;20532;-55
2022/12/01 07:29:48;;;;;;;8.68;5.32;;;205.10;2252.80;;;;;;4969760;28;20023;-55
2022/12/01 07:32:14;;;;;;;7.55;5.07;;;205.10;2252.80;;;;;;4972270;28;20022;-55
2022/12/01 07:34:40;;;;;;;8.18;5.28;;;205.30;2252.80;;;;;;4974687;28;20027;-53
2022/12/01 07:37:06;;;;;;;9.30;5.65;;;205.30;2252.80;;;;;;4975620;28;20082;-55
2022/12/01 07:39:31;;;;;;;10.73;6.60;;;205.50;2252.80;;;;;;4977741;28;20141;-55
2022/12/01 07:41:57;;;;;;;12.68;7.63;;;230.50;2252.80;;;;;;4977953;28;20446;-56
2022/12/01 07:44:23;;;;;;;11.95;7.03;;;230.80;2252.80;;;;;;4974630;28;20384;-56
2022/12/01 07:46:49;;;;;;;12.23;6.85;;;230.90;2252.80;;;;;;4974948;28;20078;-54
2022/12/01 07:49:14;;;;;;;10.52;6.38;;;231.00;2252.80;;;;;;4974371;28;20026;-54
2022/12/01 07:51:40;;;;;;;10.18;6.40;;;231.10;2252.80;;;;;;4975418;28;20488;-54
2022/12/01 07:54:06;;;;;;;10.55;6.85;;;231.20;2252.80;;;;;;4975117;28;20101;-54
2022/12/01 07:56:32;;;;;;;9.00;6.28;;;231.30;2252.80;;;;;;4974822;28;20408;-55
2022/12/01 07:58:58;;;;;;;7.28;5.00;;;231.30;2252.80;;;;;;4975325;28;20027;-55
2022/12/01 08:01:24;;;;;;;8.48;5.55;;;231.30;2252.80;;;;;;4974753;28;20118;-55
2022/12/01 08:03:52;;;;;;;9.05;5.65;;;256.00;2252.80;;;;;;4973890;28;20027;-55
2022/12/01 08:06:18;;;;;;;11.20;6.22;;;256.30;2252.80;;;;;;4979093;28;20037;-54
2022/12/01 08:08:45;;;;;;;11.18;6.10;;;256.30;2252.80;;;;;;4955283;28;20023;-54
2022/12/01 08:11:16;;;;;;;8.52;5.70;;;256.50;2252.80;;;;;;4963578;28;20043;-55
2022/12/01 08:13:45;;;;;;;10.70;5.95;;;281.60;2278.40;;;;;;4974217;28;20429;-55
2022/12/01 08:16:16;;;;;;;10.13;6.25;;;281.60;2278.40;;;;;;4974410;28;20051;-51
2022/12/01 08:18:43;;;;;;;10.60;6.40;;;281.60;2278.40;;;;;;4972777;28;20081;-56
2022/12/01 08:21:11;;;;;;;10.52;6.70;;;256.80;2252.80;;;;;;4970564;28;20039;-56
2022/12/01 08:23:37;;;;;;;12.18;6.85;;;281.70;2278.40;;;;;;4957294;28;20074;-55
2022/12/01 08:26:05;;;;;;;46.22;20.48;;;281.80;2278.40;;;;;;4974023;28;20043;-51
2022/12/01 08:28:31;;;;;;;378.45;131.93;;;282.10;2278.40;;;;;;4972781;28;20511;-53
2022/12/01 08:30:57;;;;;;;111.10;42.17;;;307.30;2304.00;;;;;;4973870;28;20043;-56
2022/12/01 08:33:23;;;;;;;174.68;66.70;;;332.80;2329.60;;;;;;4974433;28;20185;-56
2022/12/01 08:35:48;;;;;;;161.00;71.55;;;307.80;2304.00;;;;;;4973400;28;20058;-56
2022/12/01 08:38:15;;;;;;;80.45;49.40;;;307.50;2304.00;;;;;;4974009;28;20031;-55
2022/12/01 08:40:40;;;;;;;27.23;19.88;;;282.40;2278.40;;;;;;4984685;28;20490;-56
2022/12/01 08:43:06;;;;;;;22.10;13.95;;;282.40;2278.40;;;;;;4973336;28;20034;-56
2022/12/01 08:45:32;;;;;;;21.02;12.35;;;282.30;2278.40;;;;;;4983143;28;20057;-55
2022/12/01 08:47:58;;;;;;;16.23;10.10;;;282.20;2278.40;;;;;;4992985;28;20038;-56
2022/12/01 08:50:27;;;;;;;15.77;10.68;;;282.30;2278.40;;;;;;4974621;28;20384;-57
2022/12/01 08:52:53;;;;;;;14.88;10.23;;;282.30;2278.40;;;;;;4972629;28;20031;-56
2022/12/01 08:55:20;;;;;;;15.82;11.07;;;282.40;2278.40;;;;;;4970567;28;20047;-55
2022/12/01 08:57:46;;;;;;;15.05;10.70;;;282.40;2278.40;;;;;;4972195;28;20130;-53
2022/12/01 09:00:12;;;;;;;16.60;11.73;;;282.20;2278.40;;;;;;4973360;28;20098;-54
2022/12/01 09:02:38;;;;;;;22.70;14.27;;;282.40;2278.40;;;;;;4974398;28;20401;-56
2022/12/01 09:05:04;;;;;;;19.40;14.00;;;307.30;2304.00;;;;;;4973251;28;20026;-56
2022/12/01 09:07:31;;;;;;;19.13;12.48;;;307.50;2304.00;;;;;;4975364;28;20034;-56
2022/12/01 09:09:57;;;;;;;17.80;12.07;;;307.60;2304.00;;;;;;4990140;28;20026;-51
2022/12/01 09:12:22;;;;;;;19.38;11.88;;;307.60;2304.00;;;;;;4985241;28;20071;-54
2022/12/01 09:14:48;;;;;;;19.95;12.57;;;307.80;2304.00;;;;;;4973485;28;20366;-55
2022/12/01 09:17:16;;;;;;;16.00;11.48;;;307.80;2304.00;;;;;;4972470;28;20480;-54
2022/12/01 09:19:44;;;;;;;16.63;11.60;;;307.80;2304.00;;;;;;4973890;28;20034;-54
2022/12/01 09:22:13;;;;;;;24.38;15.57;;;307.80;2304.00;;;;;;4972389;28;20045;-55
2022/12/01 09:24:39;;;;;;;22.63;14.75;;;332.80;2329.60;;;;;;4971587;28;20023;-55
2022/12/01 09:27:09;;;;;;;22.73;16.10;;;333.20;2329.60;;;;;;4969054;28;20105;-55
2022/12/01 09:29:35;;;;;;;21.88;14.23;;;333.40;2329.60;;;;;;4972685;28;20037;-53
2022/12/01 09:32:07;;;;;;;18.98;13.18;;;333.60;2329.60;;;;;;4971688;28;20031;-52
2022/12/01 09:34:32;;;;;;;20.52;13.25;;;358.60;2329.60;;;;;;4967527;28;20700;-52
2022/12/01 09:36:58;;;;;;;28.92;19.27;;;358.90;2329.60;;;;;;4959236;28;20038;-58
2022/12/01 09:39:24;;;;;;;18.58;12.40;;;384.00;2329.60;;;;;;4972648;28;20030;-56
2022/12/01 09:42:04;;;;;;;18.02;12.70;;;359.10;2329.60;;;;;;4973195;28;20129;-57
2022/12/01 09:44:36;;;;;;;17.13;12.82;;;384.00;2329.60;;;;;;4972645;28;20046;-56
2022/12/01 09:47:02;;;;;;;18.92;12.77;;;384.10;2329.60;;;;;;4973442;28;20045;-56
2022/12/01 09:49:46;;;;;;;20.20;12.98;;;384.20;2329.60;;;;;;4972466;28;20444;-56
2022/12/01 09:52:14;;;;;;;18.80;12.70;;;384.20;2329.60;;;;;;4974281;28;20027;-52
2022/12/01 09:54:40;;;;;;;19.15;13.27;;;384.10;2329.60;;;;;;4986027;28;20086;-55
2022/12/01 09:57:25;;;;;;;19.15;13.57;;;359.30;2329.60;;;;;;4973262;28;20042;-56
2022/12/01 09:59:51;;;;;;;26.90;18.30;;;359.30;2329.60;;;;;;4972730;28;20059;-51
2022/12/01 10:02:25;;;;;;;22.33;16.10;;;384.10;2329.60;;;;;;4973944;28;20034;-55
2022/12/01 10:04:53;;;;;;;21.55;13.85;;;384.10;2329.60;;;;;;4971864;28;20042;-55
2022/12/01 10:07:26;;;;;;;25.00;17.88;;;359.00;2329.60;;;;;;4980352;28;20058;-53
2022/12/01 10:10:10;;;;;;;20.85;14.70;;;358.70;2329.60;;;;;;4990405;28;20104;-56
2022/12/01 10:12:36;;;;;;;22.02;14.55;;;333.70;2329.60;;;;;;4987287;28;20035;-57
2022/12/01 10:15:38;;;;;;;28.08;19.58;;;333.70;2329.60;;;;;;4989171;28;20097;-57
2022/12/01 10:18:13;;;;;;;25.95;18.88;;;358.40;2329.60;;;;;;4973188;28;20042;-53
2022/12/01 10:21:01;;;;;;;22.27;15.65;;;333.60;2329.60;;;;;;4973214;28;20359;-54
2022/12/01 10:23:59;;;;;;;25.42;16.58;;;333.30;2329.60;;;;;;4973389;28;20034;-53
2022/12/01 10:26:37;;;;;;;25.63;17.02;;;333.30;2329.60;;;;;;4973897;28;20023;-52
2022/12/01 10:29:25;;;;;;;31.08;19.92;;;332.90;2329.60;;;;;;4967934;28;20052;-53
2022/12/01 10:31:59;;;;;;;32.72;21.83;;;333.20;2329.60;;;;;;4954344;29;20512;-56
2022/12/01 10:34:33;;;;;;;31.67;22.83;;;333.20;2329.60;;;;;;4964210;28;20100;-56
2022/12/01 10:36:59;;;;;;;30.00;20.27;;;333.20;2329.60;;;;;;4981675;28;20300;-57
2022/12/01 10:39:29;;;;;;;34.83;23.55;;;333.30;2329.60;;;;;;4991533;28;20026;-55
2022/12/01 10:42:15;;;;;;;28.73;21.20;;;333.60;2329.60;;;;;;4991209;28;20035;-56
2022/12/01 10:44:41;;;;;;;28.98;20.25;;;333.60;2329.60;;;;;;4983942;28;20047;-56
2022/12/01 10:47:21;;;;;;;33.53;24.17;;;333.20;2329.60;;;;;;4971202;28;20473;-56
2022/12/01 10:49:47;;;;;;;29.35;19.80;;;333.40;2329.60;;;;;;4954519;28;20038;-57
2022/12/01 10:52:39;;;;;;;28.67;19.95;;;333.20;2329.60;;;;;;4972618;28;20365;-56
2022/12/01 10:55:29;;;;;;;33.88;22.58;;;332.90;2329.60;;;;;;4975811;28;20138;-58
2022/12/01 10:57:59;;;;;;;35.80;24.00;;;332.80;2329.60;;;;;;4972935;28;20042;-54
2022/12/01 11:00:32;;;;;;;31.10;22.70;;;307.90;2304.00;;;;;;4971614;28;20030;-55
2022/12/01 11:02:58;;;;;;;32.15;22.20;;;307.50;2304.00;;;;;;4971115;28;20027;-56
2022/12/01 11:05:30;;;;;;;32.20;22.02;;;282.50;2278.40;;;;;;4962532;28;20035;-52
2022/12/01 11:07:56;;;;;;;34.65;22.98;;;282.50;2278.40;;;;;;4933959;29;20037;-55
2022/12/01 11:10:24;;;;;;;37.90;25.10;;;307.20;2304.00;;;;;;4952583;29;20035;-57
2022/12/01 11:13:06;;;;;;;35.42;23.88;;;282.40;2278.40;;;;;;4961370;28;20081;-56
2022/12/01 11:15:37;;;;;;;38.70;27.02;;;282.10;2278.40;;;;;;4972593;28;20019;-55
2022/12/01 11:18:23;;;;;;;37.55;24.50;;;281.90;2278.40;;;;;;4971956;28;20046;-57
2022/12/01 11:21:04;;;;;;;37.83;25.60;;;281.90;2278.40;;;;;;4975624;28;20450;-58
2022/12/01 11:23:30;;;;;;;55.42;30.50;;;281.90;2278.40;;;;;;4975307;28;20369;-58
2022/12/01 11:26:03;;;;;;;68.00;40.30;;;282.00;2278.40;;;;;;4976736;28;20031;-57
2022/12/01 11:28:32;;;;;;;68.47;40.85;;;281.90;2278.40;;;;;;4995457;28;20050;-56
2022/12/01 11:31:01;;;;;;;74.05;45.75;;;282.00;2278.40;;;;;;4983947;28;20027;-56
2022/12/01 11:33:28;;;;;;;53.13;32.63;;;282.10;2278.40;;;;;;4975441;28;20054;-56
2022/12/01 11:35:54;;;;;;;74.38;45.42;;;282.00;2278.40;;;;;;4973533;28;20030;-57
2022/12/01 11:38:21;;;;;;;;;;;282.00;2278.40;;;;;;4974800;28;20042;-57
2022/12/01 11:40:52;;;;;;;;;;;282.10;2278.40;;;;;;4961721;28;20421;-57
2022/12/01 11:43:34;;;;;;;;;;;282.00;2278.40;;;;;;4974992;28;20408;-57
2022/12/01 11:46:04;;;;;;;;;;;281.90;2278.40;;;;;;4973897;28;19913;-54
2022/12/01 11:48:33;;;;;;;;;;;281.90;2278.40;;;;;;4974414;28;20340;-55
2022/12/01 11:51:05;;;;;;;;;;;281.80;2278.40;;;;;;4975118;28;19906;-52
2022/12/01 11:53:32;;;;;;;;;;;281.90;2278.40;;;;;;4977596;28;19964;-55
2022/12/01 11:56:16;;;;;;;;;;;282.10;2278.40;;;;;;4988718;28;19918;-55
2022/12/01 11:58:45;;;;;;;;;;;282.20;2278.40;;;;;;4974742;28;19906;-56
2022/12/01 12:01:13;;;;;;;;;;;282.20;2278.40;;;;;;4975588;28;19913;-56
2022/12/01 12:03:44;;;;;;;;;;;282.20;2278.40;;;;;;4977862;28;19918;-56
2022/12/01 12:06:32;;;;;;;;;;;282.10;2278.40;;;;;;4973762;28;20004;-53
2022/12/01 12:09:21;;;;;;;;;;;282.00;2278.40;;;;;;4973119;28;19910;-51
2022/12/01 12:11:56;;;;;;;;;;;282.10;2278.40;;;;;;4897939;29;20002;-55
2022/12/01 12:14:27;;;;;;;;;;;282.00;2278.40;;;;;;4896535;29;20071;-56
2022/12/01 12:17:07;;;;;;;;;;;281.90;2278.40;;;;;;4893378;29;19931;-57
2022/12/01 12:19:39;;;;;;;;;;;281.80;2278.40;;;;;;4896273;29;19911;-56
2022/12/01 12:22:05;;;;;;;;;;;281.60;2278.40;;;;;;4894646;29;19907;-56
2022/12/01 12:24:40;;;;;;;;;;;281.70;2278.40;;;;;;4895786;29;19931;-54
2022/12/01 12:27:06;;;;;;;;;;;281.70;2278.40;;;;;;4896827;29;19949;-51
2022/12/01 12:29:50;;;;;;;;;;;281.70;2278.40;;;;;;4894342;29;20370;-56
2022/12/01 12:32:34;;;;;;;;;;;281.60;2278.40;;;;;;4895268;29;19911;-54
2022/12/01 12:35:11;;;;;;;;;;;281.60;2278.40;;;;;;4901115;29;20009;-52